sensor_id;sensor_type;location;lat;lon;timestamp;P1;P2;P0
46681;PMS5003;34101;53.430;-2.224;2024-02-28T00:01:47;24;19;
46681;PMS5003;34101;53.430;-2.224;2024-02-28T00:04:14;20;16;
46681;PMS5003;34101;53.430;-2.224;2024-02-28T00:06:42;16;15;
46681;PMS5003;34101;53.430;-2.224;2024-02-28T00:09:10;24;21;
46681;PMS5003;34101;53.430;-2.224;2024-02-28T00:11:42;20;17;
46681;PMS5003;34101;53.430;-2.224;2024-02-28T00:14:10;18;18;
46681;PMS5003;34101;53.430;-2.224;2024-02-28T00:16:39;18;14;
46681;PMS5003;34101;53.430;-2.224;2024-02-28T00:19:07;18;14;
46681;PMS5003;34101;53.430;-2.224;2024-02-28T00:21:41;27;21;
46681;PMS5003;34101;53.430;-2.224;2024-02-28T00:24:09;19;15;
46681;PMS5003;34101;53.430;-2.224;2024-02-28T00:26:39;13;13;
46681;PMS5003;34101;53.430;-2.224;2024-02-28T00:29:08;19;15;
46681;PMS5003;34101;53.430;-2.224;2024-02-28T00:31:36;19;16;
46681;PMS5003;34101;53.430;-2.224;2024-02-28T00:34:03;15;15;
46681;PMS5003;34101;53.430;-2.224;2024-02-28T00:36:31;19;15;
46681;PMS5003;34101;53.430;-2.224;2024-02-28T00:38:59;16;12;
46681;PMS5003;34101;53.430;-2.224;2024-02-28T00:41:26;16;14;
46681;PMS5003;34101;53.430;-2.224;2024-02-28T00:43:53;23;20;
46681;PMS5003;34101;53.430;-2.224;2024-02-28T00:46:21;16;15;
46681;PMS5003;34101;53.430;-2.224;2024-02-28T00:48:48;18;18;
46681;PMS5003;34101;53.430;-2.224;2024-02-28T00:51:16;14;13;
46681;PMS5003;34101;53.430;-2.224;2024-02-28T00:53:43;17;14;
46681;PMS5003;34101;53.430;-2.224;2024-02-28T00:56:10;18;18;
46681;PMS5003;34101;53.430;-2.224;2024-02-28T00:58:37;20;18;
46681;PMS5003;34101;53.430;-2.224;2024-02-28T01:01:06;21;15;
46681;PMS5003;34101;53.430;-2.224;2024-02-28T01:03:34;21;16;
46681;PMS5003;34101;53.430;-2.224;2024-02-28T01:06:06;20;16;
46681;PMS5003;34101;53.430;-2.224;2024-02-28T01:08:49;20;15;
46681;PMS5003;34101;53.430;-2.224;2024-02-28T01:11:20;18;18;
46681;PMS5003;34101;53.430;-2.224;2024-02-28T01:13:48;15;14;
46681;PMS5003;34101;53.430;-2.224;2024-02-28T01:16:15;12;12;
46681;PMS5003;34101;53.430;-2.224;2024-02-28T01:18:43;19;16;
46681;PMS5003;34101;53.430;-2.224;2024-02-28T01:21:10;16;13;
46681;PMS5003;34101;53.430;-2.224;2024-02-28T01:23:37;16;14;
46681;PMS5003;34101;53.430;-2.224;2024-02-28T01:26:09;12;11;
46681;PMS5003;34101;53.430;-2.224;2024-02-28T01:28:36;18;14;
46681;PMS5003;34101;53.430;-2.224;2024-02-28T01:31:04;12;12;
46681;PMS5003;34101;53.430;-2.224;2024-02-28T01:33:31;13;11;
46681;PMS5003;34101;53.430;-2.224;2024-02-28T01:35:58;18;13;
46681;PMS5003;34101;53.430;-2.224;2024-02-28T01:38:28;18;15;
46681;PMS5003;34101;53.430;-2.224;2024-02-28T01:40:55;19;17;
46681;PMS5003;34101;53.430;-2.224;2024-02-28T01:43:22;22;17;
46681;PMS5003;34101;53.430;-2.224;2024-02-28T01:45:50;19;15;
46681;PMS5003;34101;53.430;-2.224;2024-02-28T01:48:18;18;14;
46681;PMS5003;34101;53.430;-2.224;2024-02-28T01:50:45;14;13;
46681;PMS5003;34101;53.430;-2.224;2024-02-28T01:53:14;19;15;
46681;PMS5003;34101;53.430;-2.224;2024-02-28T01:55:41;19;15;
46681;PMS5003;34101;53.430;-2.224;2024-02-28T01:58:09;14;11;
46681;PMS5003;34101;53.430;-2.224;2024-02-28T02:00:39;17;13;
46681;PMS5003;34101;53.430;-2.224;2024-02-28T02:03:07;11;10;
46681;PMS5003;34101;53.430;-2.224;2024-02-28T02:05:35;19;18;
46681;PMS5003;34101;53.430;-2.224;2024-02-28T02:08:03;14;14;
46681;PMS5003;34101;53.430;-2.224;2024-02-28T02:10:31;18;14;
46681;PMS5003;34101;53.430;-2.224;2024-02-28T02:13:03;18;17;
46681;PMS5003;34101;53.430;-2.224;2024-02-28T02:15:31;12;12;
46681;PMS5003;34101;53.430;-2.224;2024-02-28T02:17:59;18;13;
46681;PMS5003;34101;53.430;-2.224;2024-02-28T02:20:28;14;13;
46681;PMS5003;34101;53.430;-2.224;2024-02-28T02:22:58;22;21;
46681;PMS5003;34101;53.430;-2.224;2024-02-28T02:25:27;15;14;
46681;PMS5003;34101;53.430;-2.224;2024-02-28T02:27:55;18;13;
46681;PMS5003;34101;53.430;-2.224;2024-02-28T02:30:22;11;11;
46681;PMS5003;34101;53.430;-2.224;2024-02-28T02:32:50;12;11;
46681;PMS5003;34101;53.430;-2.224;2024-02-28T02:35:17;15;14;
46681;PMS5003;34101;53.430;-2.224;2024-02-28T02:37:44;14;11;
46681;PMS5003;34101;53.430;-2.224;2024-02-28T02:40:12;13;13;
46681;PMS5003;34101;53.430;-2.224;2024-02-28T02:42:40;11;11;
46681;PMS5003;34101;53.430;-2.224;2024-02-28T02:45:09;12;11;
46681;PMS5003;34101;53.430;-2.224;2024-02-28T02:47:36;11;11;
46681;PMS5003;34101;53.430;-2.224;2024-02-28T02:50:04;13;12;
46681;PMS5003;34101;53.430;-2.224;2024-02-28T02:52:32;18;14;
46681;PMS5003;34101;53.430;-2.224;2024-02-28T02:55:00;14;14;
46681;PMS5003;34101;53.430;-2.224;2024-02-28T02:57:27;13;10;
46681;PMS5003;34101;53.430;-2.224;2024-02-28T02:59:56;15;14;
46681;PMS5003;34101;53.430;-2.224;2024-02-28T03:02:23;12;10;
46681;PMS5003;34101;53.430;-2.224;2024-02-28T03:04:51;13;12;
46681;PMS5003;34101;53.430;-2.224;2024-02-28T03:07:19;11;11;
46681;PMS5003;34101;53.430;-2.224;2024-02-28T03:09:46;9;9;
46681;PMS5003;34101;53.430;-2.224;2024-02-28T03:12:13;14;11;
46681;PMS5003;34101;53.430;-2.224;2024-02-28T03:14:41;17;13;
46681;PMS5003;34101;53.430;-2.224;2024-02-28T03:17:09;15;13;
46681;PMS5003;34101;53.430;-2.224;2024-02-28T03:19:36;12;11;
46681;PMS5003;34101;53.430;-2.224;2024-02-28T03:22:03;14;13;
46681;PMS5003;34101;53.430;-2.224;2024-02-28T03:24:33;13;9;
46681;PMS5003;34101;53.430;-2.224;2024-02-28T03:27:00;13;12;
46681;PMS5003;34101;53.430;-2.224;2024-02-28T03:29:27;9;9;
46681;PMS5003;34101;53.430;-2.224;2024-02-28T03:31:57;11;11;
46681;PMS5003;34101;53.430;-2.224;2024-02-28T03:34:25;13;11;
46681;PMS5003;34101;53.430;-2.224;2024-02-28T03:36:53;11;10;
46681;PMS5003;34101;53.430;-2.224;2024-02-28T03:39:20;13;10;
46681;PMS5003;34101;53.430;-2.224;2024-02-28T03:41:47;14;13;
46681;PMS5003;34101;53.430;-2.224;2024-02-28T03:44:16;11;9;
46681;PMS5003;34101;53.430;-2.224;2024-02-28T03:46:43;14;13;
46681;PMS5003;34101;53.430;-2.224;2024-02-28T03:49:10;11;10;
46681;PMS5003;34101;53.430;-2.224;2024-02-28T03:51:39;9;9;
46681;PMS5003;34101;53.430;-2.224;2024-02-28T03:54:07;15;9;
46681;PMS5003;34101;53.430;-2.224;2024-02-28T03:56:35;12;7;
46681;PMS5003;34101;53.430;-2.224;2024-02-28T03:59:02;7;7;
46681;PMS5003;34101;53.430;-2.224;2024-02-28T04:01:34;16;10;
46681;PMS5003;34101;53.430;-2.224;2024-02-28T04:04:02;12;10;
46681;PMS5003;34101;53.430;-2.224;2024-02-28T04:06:29;12;10;
46681;PMS5003;34101;53.430;-2.224;2024-02-28T04:08:57;10;5;
46681;PMS5003;34101;53.430;-2.224;2024-02-28T04:11:29;16;15;
46681;PMS5003;34101;53.430;-2.224;2024-02-28T04:13:57;11;7;
46681;PMS5003;34101;53.430;-2.224;2024-02-28T04:16:24;7;7;
46681;PMS5003;34101;53.430;-2.224;2024-02-28T04:18:57;9;7;
46681;PMS5003;34101;53.430;-2.224;2024-02-28T04:21:24;6;4;
46681;PMS5003;34101;53.430;-2.224;2024-02-28T04:23:51;7;7;
46681;PMS5003;34101;53.430;-2.224;2024-02-28T04:26:19;9;7;
46681;PMS5003;34101;53.430;-2.224;2024-02-28T04:28:46;6;6;
46681;PMS5003;34101;53.430;-2.224;2024-02-28T04:31:13;9;7;
46681;PMS5003;34101;53.430;-2.224;2024-02-28T04:33:41;11;5;
46681;PMS5003;34101;53.430;-2.224;2024-02-28T04:36:08;12;9;
46681;PMS5003;34101;53.430;-2.224;2024-02-28T04:38:36;9;6;
46681;PMS5003;34101;53.430;-2.224;2024-02-28T04:41:05;6;6;
46681;PMS5003;34101;53.430;-2.224;2024-02-28T04:43:32;9;5;
46681;PMS5003;34101;53.430;-2.224;2024-02-28T04:46:00;4;4;
46681;PMS5003;34101;53.430;-2.224;2024-02-28T04:48:28;4;4;
46681;PMS5003;34101;53.430;-2.224;2024-02-28T04:50:55;9;6;
46681;PMS5003;34101;53.430;-2.224;2024-02-28T04:53:22;4;3;
46681;PMS5003;34101;53.430;-2.224;2024-02-28T04:55:50;6;4;
46681;PMS5003;34101;53.430;-2.224;2024-02-28T04:58:17;7;4;
46681;PMS5003;34101;53.430;-2.224;2024-02-28T05:00:46;12;7;
46681;PMS5003;34101;53.430;-2.224;2024-02-28T05:03:13;7;7;
46681;PMS5003;34101;53.430;-2.224;2024-02-28T05:05:41;6;5;
46681;PMS5003;34101;53.430;-2.224;2024-02-28T05:08:08;8;4;
46681;PMS5003;34101;53.430;-2.224;2024-02-28T05:10:36;7;6;
46681;PMS5003;34101;53.430;-2.224;2024-02-28T05:13:03;5;5;
46681;PMS5003;34101;53.430;-2.224;2024-02-28T05:15:30;6;5;
46681;PMS5003;34101;53.430;-2.224;2024-02-28T05:17:58;7;5;
46681;PMS5003;34101;53.430;-2.224;2024-02-28T05:20:25;8;6;
46681;PMS5003;34101;53.430;-2.224;2024-02-28T05:22:52;6;4;
46681;PMS5003;34101;53.430;-2.224;2024-02-28T05:25:20;5;5;
46681;PMS5003;34101;53.430;-2.224;2024-02-28T05:27:47;6;4;
46681;PMS5003;34101;53.430;-2.224;2024-02-28T05:30:15;8;7;
46681;PMS5003;34101;53.430;-2.224;2024-02-28T05:32:42;4;4;
46681;PMS5003;34101;53.430;-2.224;2024-02-28T05:35:09;7;7;
46681;PMS5003;34101;53.430;-2.224;2024-02-28T05:37:39;10;7;
46681;PMS5003;34101;53.430;-2.224;2024-02-28T05:40:07;10;8;
46681;PMS5003;34101;53.430;-2.224;2024-02-28T05:42:35;8;7;
46681;PMS5003;34101;53.430;-2.224;2024-02-28T05:45:02;5;5;
46681;PMS5003;34101;53.430;-2.224;2024-02-28T05:47:29;8;6;
46681;PMS5003;34101;53.430;-2.224;2024-02-28T05:49:57;7;6;
46681;PMS5003;34101;53.430;-2.224;2024-02-28T05:52:24;10;5;
46681;PMS5003;34101;53.430;-2.224;2024-02-28T05:54:52;11;10;
46681;PMS5003;34101;53.430;-2.224;2024-02-28T05:57:19;10;6;
46681;PMS5003;34101;53.430;-2.224;2024-02-28T05:59:46;12;7;
46681;PMS5003;34101;53.430;-2.224;2024-02-28T06:02:14;5;4;
46681;PMS5003;34101;53.430;-2.224;2024-02-28T06:04:42;7;7;
46681;PMS5003;34101;53.430;-2.224;2024-02-28T06:07:10;7;7;
46681;PMS5003;34101;53.430;-2.224;2024-02-28T06:09:42;13;8;
46681;PMS5003;34101;53.430;-2.224;2024-02-28T06:12:09;12;6;
46681;PMS5003;34101;53.430;-2.224;2024-02-28T06:14:37;7;6;
46681;PMS5003;34101;53.430;-2.224;2024-02-28T06:17:04;10;8;
46681;PMS5003;34101;53.430;-2.224;2024-02-28T06:19:33;6;6;
46681;PMS5003;34101;53.430;-2.224;2024-02-28T06:22:00;8;6;
46681;PMS5003;34101;53.430;-2.224;2024-02-28T06:24:33;6;5;
46681;PMS5003;34101;53.430;-2.224;2024-02-28T06:27:01;9;5;
46681;PMS5003;34101;53.430;-2.224;2024-02-28T06:29:28;11;6;
46681;PMS5003;34101;53.430;-2.224;2024-02-28T06:31:56;6;4;
46681;PMS5003;34101;53.430;-2.224;2024-02-28T06:34:28;7;6;
46681;PMS5003;34101;53.430;-2.224;2024-02-28T06:36:55;6;5;
46681;PMS5003;34101;53.430;-2.224;2024-02-28T06:39:28;6;5;
46681;PMS5003;34101;53.430;-2.224;2024-02-28T06:41:57;8;5;
46681;PMS5003;34101;53.430;-2.224;2024-02-28T06:44:29;7;7;
46681;PMS5003;34101;53.430;-2.224;2024-02-28T06:46:57;7;6;
46681;PMS5003;34101;53.430;-2.224;2024-02-28T06:49:25;8;8;
46681;PMS5003;34101;53.430;-2.224;2024-02-28T06:51:52;14;13;
46681;PMS5003;34101;53.430;-2.224;2024-02-28T06:54:20;5;5;
46681;PMS5003;34101;53.430;-2.224;2024-02-28T06:56:47;6;6;
46681;PMS5003;34101;53.430;-2.224;2024-02-28T06:59:14;5;5;
46681;PMS5003;34101;53.430;-2.224;2024-02-28T07:01:43;15;14;
46681;PMS5003;34101;53.430;-2.224;2024-02-28T07:04:10;10;7;
46681;PMS5003;34101;53.430;-2.224;2024-02-28T07:06:37;5;5;
46681;PMS5003;34101;53.430;-2.224;2024-02-28T07:09:07;12;8;
46681;PMS5003;34101;53.430;-2.224;2024-02-28T07:11:35;7;5;
46681;PMS5003;34101;53.430;-2.224;2024-02-28T07:14:04;14;9;
46681;PMS5003;34101;53.430;-2.224;2024-02-28T07:16:31;7;7;
46681;PMS5003;34101;53.430;-2.224;2024-02-28T07:18:59;11;8;
46681;PMS5003;34101;53.430;-2.224;2024-02-28T07:21:30;5;5;
46681;PMS5003;34101;53.430;-2.224;2024-02-28T07:23:57;11;6;
46681;PMS5003;34101;53.430;-2.224;2024-02-28T07:26:24;7;6;
46681;PMS5003;34101;53.430;-2.224;2024-02-28T07:28:56;10;7;
46681;PMS5003;34101;53.430;-2.224;2024-02-28T07:31:24;18;13;
46681;PMS5003;34101;53.430;-2.224;2024-02-28T07:33:51;13;7;
46681;PMS5003;34101;53.430;-2.224;2024-02-28T07:36:19;11;9;
46681;PMS5003;34101;53.430;-2.224;2024-02-28T07:38:46;7;7;
46681;PMS5003;34101;53.430;-2.224;2024-02-28T07:41:13;9;5;
46681;PMS5003;34101;53.430;-2.224;2024-02-28T07:43:46;6;5;
46681;PMS5003;34101;53.430;-2.224;2024-02-28T07:46:18;11;7;
46681;PMS5003;34101;53.430;-2.224;2024-02-28T07:48:46;8;8;
46681;PMS5003;34101;53.430;-2.224;2024-02-28T07:51:13;6;6;
46681;PMS5003;34101;53.430;-2.224;2024-02-28T07:53:41;8;5;
46681;PMS5003;34101;53.430;-2.224;2024-02-28T07:56:15;6;5;
46681;PMS5003;34101;53.430;-2.224;2024-02-28T07:58:42;5;5;
46681;PMS5003;34101;53.430;-2.224;2024-02-28T08:01:10;5;5;
46681;PMS5003;34101;53.430;-2.224;2024-02-28T08:03:37;7;7;
46681;PMS5003;34101;53.430;-2.224;2024-02-28T08:06:04;8;6;
46681;PMS5003;34101;53.430;-2.224;2024-02-28T08:08:32;4;4;
46681;PMS5003;34101;53.430;-2.224;2024-02-28T08:10:59;6;6;
46681;PMS5003;34101;53.430;-2.224;2024-02-28T08:13:27;16;15;
46681;PMS5003;34101;53.430;-2.224;2024-02-28T08:15:54;11;7;
46681;PMS5003;34101;53.430;-2.224;2024-02-28T08:18:22;9;6;
46681;PMS5003;34101;53.430;-2.224;2024-02-28T08:20:51;9;9;
46681;PMS5003;34101;53.430;-2.224;2024-02-28T08:23:18;7;7;
46681;PMS5003;34101;53.430;-2.224;2024-02-28T08:25:45;12;8;
46681;PMS5003;34101;53.430;-2.224;2024-02-28T08:28:14;12;5;
46681;PMS5003;34101;53.430;-2.224;2024-02-28T08:30:41;8;6;
46681;PMS5003;34101;53.430;-2.224;2024-02-28T08:33:09;8;5;
46681;PMS5003;34101;53.430;-2.224;2024-02-28T08:35:36;6;6;
46681;PMS5003;34101;53.430;-2.224;2024-02-28T08:38:03;7;7;
46681;PMS5003;34101;53.430;-2.224;2024-02-28T08:40:30;12;8;
46681;PMS5003;34101;53.430;-2.224;2024-02-28T08:42:57;13;11;
46681;PMS5003;34101;53.430;-2.224;2024-02-28T08:45:25;6;6;
46681;PMS5003;34101;53.430;-2.224;2024-02-28T08:47:52;7;7;
46681;PMS5003;34101;53.430;-2.224;2024-02-28T08:50:19;6;6;
46681;PMS5003;34101;53.430;-2.224;2024-02-28T08:52:47;12;5;
46681;PMS5003;34101;53.430;-2.224;2024-02-28T08:55:15;9;6;
46681;PMS5003;34101;53.430;-2.224;2024-02-28T08:57:42;9;6;
46681;PMS5003;34101;53.430;-2.224;2024-02-28T09:00:10;5;4;
46681;PMS5003;34101;53.430;-2.224;2024-02-28T09:02:38;5;5;
46681;PMS5003;34101;53.430;-2.224;2024-02-28T09:05:05;8;6;
46681;PMS5003;34101;53.430;-2.224;2024-02-28T09:07:33;13;8;
46681;PMS5003;34101;53.430;-2.224;2024-02-28T09:10:01;7;6;
46681;PMS5003;34101;53.430;-2.224;2024-02-28T09:12:30;10;9;
46681;PMS5003;34101;53.430;-2.224;2024-02-28T09:14:58;5;5;
46681;PMS5003;34101;53.430;-2.224;2024-02-28T09:17:25;9;4;
46681;PMS5003;34101;53.430;-2.224;2024-02-28T09:19:53;7;7;
46681;PMS5003;34101;53.430;-2.224;2024-02-28T09:22:20;6;6;
46681;PMS5003;34101;53.430;-2.224;2024-02-28T09:24:48;13;5;
46681;PMS5003;34101;53.430;-2.224;2024-02-28T09:27:16;13;8;
46681;PMS5003;34101;53.430;-2.224;2024-02-28T09:29:44;7;7;
46681;PMS5003;34101;53.430;-2.224;2024-02-28T09:32:11;7;6;
46681;PMS5003;34101;53.430;-2.224;2024-02-28T09:34:38;8;8;
46681;PMS5003;34101;53.430;-2.224;2024-02-28T09:37:06;9;7;
46681;PMS5003;34101;53.430;-2.224;2024-02-28T09:39:33;8;7;
46681;PMS5003;34101;53.430;-2.224;2024-02-28T09:42:00;6;6;
46681;PMS5003;34101;53.430;-2.224;2024-02-28T09:44:28;6;4;
46681;PMS5003;34101;53.430;-2.224;2024-02-28T09:46:56;9;5;
46681;PMS5003;34101;53.430;-2.224;2024-02-28T09:49:23;6;5;
46681;PMS5003;34101;53.430;-2.224;2024-02-28T09:51:53;8;6;
46681;PMS5003;34101;53.430;-2.224;2024-02-28T09:54:20;6;6;
46681;PMS5003;34101;53.430;-2.224;2024-02-28T09:56:47;8;7;
46681;PMS5003;34101;53.430;-2.224;2024-02-28T09:59:16;6;6;
46681;PMS5003;34101;53.430;-2.224;2024-02-28T10:01:47;6;6;
46681;PMS5003;34101;53.430;-2.224;2024-02-28T10:04:19;7;5;
46681;PMS5003;34101;53.430;-2.224;2024-02-28T10:06:47;7;6;
46681;PMS5003;34101;53.430;-2.224;2024-02-28T10:09:14;10;10;
46681;PMS5003;34101;53.430;-2.224;2024-02-28T10:11:41;6;6;
46681;PMS5003;34101;53.430;-2.224;2024-02-28T10:14:09;6;3;
46681;PMS5003;34101;53.430;-2.224;2024-02-28T10:16:36;8;8;
46681;PMS5003;34101;53.430;-2.224;2024-02-28T10:19:04;13;6;
46681;PMS5003;34101;53.430;-2.224;2024-02-28T10:21:32;9;8;
46681;PMS5003;34101;53.430;-2.224;2024-02-28T10:24:00;6;5;
46681;PMS5003;34101;53.430;-2.224;2024-02-28T10:26:27;8;8;
46681;PMS5003;34101;53.430;-2.224;2024-02-28T10:28:56;9;7;
46681;PMS5003;34101;53.430;-2.224;2024-02-28T10:31:23;6;5;
46681;PMS5003;34101;53.430;-2.224;2024-02-28T10:33:51;11;7;
46681;PMS5003;34101;53.430;-2.224;2024-02-28T10:36:18;9;6;
46681;PMS5003;34101;53.430;-2.224;2024-02-28T10:38:45;5;4;
46681;PMS5003;34101;53.430;-2.224;2024-02-28T10:41:13;8;7;
46681;PMS5003;34101;53.430;-2.224;2024-02-28T10:43:41;5;4;
46681;PMS5003;34101;53.430;-2.224;2024-02-28T10:46:10;9;6;
46681;PMS5003;34101;53.430;-2.224;2024-02-28T10:48:41;6;5;
46681;PMS5003;34101;53.430;-2.224;2024-02-28T10:51:08;15;13;
46681;PMS5003;34101;53.430;-2.224;2024-02-28T10:53:46;10;6;
46681;PMS5003;34101;53.430;-2.224;2024-02-28T10:56:20;12;6;
46681;PMS5003;34101;53.430;-2.224;2024-02-28T10:58:50;10;5;
46681;PMS5003;34101;53.430;-2.224;2024-02-28T11:01:18;7;5;
46681;PMS5003;34101;53.430;-2.224;2024-02-28T11:03:45;10;7;
46681;PMS5003;34101;53.430;-2.224;2024-02-28T11:06:17;9;8;
46681;PMS5003;34101;53.430;-2.224;2024-02-28T11:08:46;8;6;
46681;PMS5003;34101;53.430;-2.224;2024-02-28T11:11:13;8;4;
46681;PMS5003;34101;53.430;-2.224;2024-02-28T11:13:51;9;7;
46681;PMS5003;34101;53.430;-2.224;2024-02-28T11:16:27;11;6;
46681;PMS5003;34101;53.430;-2.224;2024-02-28T11:19:01;8;8;
46681;PMS5003;34101;53.430;-2.224;2024-02-28T11:21:28;8;6;
46681;PMS5003;34101;53.430;-2.224;2024-02-28T11:23:57;10;8;
46681;PMS5003;34101;53.430;-2.224;2024-02-28T11:26:26;6;5;
46681;PMS5003;34101;53.430;-2.224;2024-02-28T11:28:53;11;7;
46681;PMS5003;34101;53.430;-2.224;2024-02-28T11:31:22;9;7;
46681;PMS5003;34101;53.430;-2.224;2024-02-28T11:33:49;6;5;
46681;PMS5003;34101;53.430;-2.224;2024-02-28T11:36:16;8;7;
46681;PMS5003;34101;53.430;-2.224;2024-02-28T11:38:44;8;5;
46681;PMS5003;34101;53.430;-2.224;2024-02-28T11:41:11;10;6;
46681;PMS5003;34101;53.430;-2.224;2024-02-28T11:43:38;8;4;
46681;PMS5003;34101;53.430;-2.224;2024-02-28T11:46:11;9;8;
46681;PMS5003;34101;53.430;-2.224;2024-02-28T11:48:39;8;6;
46681;PMS5003;34101;53.430;-2.224;2024-02-28T11:51:07;10;4;
46681;PMS5003;34101;53.430;-2.224;2024-02-28T11:53:35;4;4;
46681;PMS5003;34101;53.430;-2.224;2024-02-28T11:56:07;3;3;
46681;PMS5003;34101;53.430;-2.224;2024-02-28T11:58:35;8;5;
46681;PMS5003;34101;53.430;-2.224;2024-02-28T12:01:02;8;5;
46681;PMS5003;34101;53.430;-2.224;2024-02-28T12:03:30;3;3;
46681;PMS5003;34101;53.430;-2.224;2024-02-28T12:05:57;7;5;
46681;PMS5003;34101;53.430;-2.224;2024-02-28T12:08:30;6;6;
46681;PMS5003;34101;53.430;-2.224;2024-02-28T12:11:06;8;5;
46681;PMS5003;34101;53.430;-2.224;2024-02-28T12:13:40;12;7;
46681;PMS5003;34101;53.430;-2.224;2024-02-28T12:16:07;7;7;
46681;PMS5003;34101;53.430;-2.224;2024-02-28T12:18:35;8;6;
46681;PMS5003;34101;53.430;-2.224;2024-02-28T12:21:03;10;7;
46681;PMS5003;34101;53.430;-2.224;2024-02-28T12:23:30;14;6;
46681;PMS5003;34101;53.430;-2.224;2024-02-28T12:25:58;13;8;
46681;PMS5003;34101;53.430;-2.224;2024-02-28T12:28:25;8;7;
46681;PMS5003;34101;53.430;-2.224;2024-02-28T12:30:52;8;6;
46681;PMS5003;34101;53.430;-2.224;2024-02-28T12:33:20;9;6;
46681;PMS5003;34101;53.430;-2.224;2024-02-28T12:35:47;10;6;
46681;PMS5003;34101;53.430;-2.224;2024-02-28T12:38:14;9;6;
46681;PMS5003;34101;53.430;-2.224;2024-02-28T12:40:42;6;6;
46681;PMS5003;34101;53.430;-2.224;2024-02-28T12:43:09;5;5;
46681;PMS5003;34101;53.430;-2.224;2024-02-28T12:45:36;7;7;
46681;PMS5003;34101;53.430;-2.224;2024-02-28T12:48:04;6;6;
46681;PMS5003;34101;53.430;-2.224;2024-02-28T12:50:31;16;13;
46681;PMS5003;34101;53.430;-2.224;2024-02-28T12:52:59;6;5;
46681;PMS5003;34101;53.430;-2.224;2024-02-28T12:55:26;10;6;
46681;PMS5003;34101;53.430;-2.224;2024-02-28T12:57:53;7;5;
46681;PMS5003;34101;53.430;-2.224;2024-02-28T13:00:21;6;5;
46681;PMS5003;34101;53.430;-2.224;2024-02-28T13:02:48;6;6;
46681;PMS5003;34101;53.430;-2.224;2024-02-28T13:05:20;6;6;
46681;PMS5003;34101;53.430;-2.224;2024-02-28T13:07:48;6;5;
46681;PMS5003;34101;53.430;-2.224;2024-02-28T13:10:15;8;5;
46681;PMS5003;34101;53.430;-2.224;2024-02-28T13:12:43;10;10;
46681;PMS5003;34101;53.430;-2.224;2024-02-28T13:15:10;5;4;
46681;PMS5003;34101;53.430;-2.224;2024-02-28T13:17:39;6;6;
46681;PMS5003;34101;53.430;-2.224;2024-02-28T13:20:07;5;5;
46681;PMS5003;34101;53.430;-2.224;2024-02-28T13:22:35;10;6;
46681;PMS5003;34101;53.430;-2.224;2024-02-28T13:25:08;7;4;
46681;PMS5003;34101;53.430;-2.224;2024-02-28T13:27:35;9;6;
46681;PMS5003;34101;53.430;-2.224;2024-02-28T13:30:02;9;7;
46681;PMS5003;34101;53.430;-2.224;2024-02-28T13:32:31;6;6;
46681;PMS5003;34101;53.430;-2.224;2024-02-28T13:34:59;7;7;
46681;PMS5003;34101;53.430;-2.224;2024-02-28T13:37:26;11;6;
46681;PMS5003;34101;53.430;-2.224;2024-02-28T13:39:53;6;6;
46681;PMS5003;34101;53.430;-2.224;2024-02-28T13:42:20;7;7;
46681;PMS5003;34101;53.430;-2.224;2024-02-28T13:44:53;5;5;
46681;PMS5003;34101;53.430;-2.224;2024-02-28T13:47:20;10;8;
46681;PMS5003;34101;53.430;-2.224;2024-02-28T13:49:53;8;8;
46681;PMS5003;34101;53.430;-2.224;2024-02-28T13:52:20;7;6;
46681;PMS5003;34101;53.430;-2.224;2024-02-28T13:54:48;9;7;
46681;PMS5003;34101;53.430;-2.224;2024-02-28T13:57:15;9;7;
46681;PMS5003;34101;53.430;-2.224;2024-02-28T13:59:43;9;5;
46681;PMS5003;34101;53.430;-2.224;2024-02-28T14:02:10;9;8;
46681;PMS5003;34101;53.430;-2.224;2024-02-28T14:04:38;11;8;
46681;PMS5003;34101;53.430;-2.224;2024-02-28T14:07:06;7;7;
46681;PMS5003;34101;53.430;-2.224;2024-02-28T14:09:34;8;8;
46681;PMS5003;34101;53.430;-2.224;2024-02-28T14:12:02;8;7;
46681;PMS5003;34101;53.430;-2.224;2024-02-28T14:14:29;13;12;
46681;PMS5003;34101;53.430;-2.224;2024-02-28T14:16:56;8;8;
46681;PMS5003;34101;53.430;-2.224;2024-02-28T14:19:24;12;10;
46681;PMS5003;34101;53.430;-2.224;2024-02-28T14:21:51;11;8;
46681;PMS5003;34101;53.430;-2.224;2024-02-28T14:24:19;11;10;
46681;PMS5003;34101;53.430;-2.224;2024-02-28T14:26:46;6;6;
46681;PMS5003;34101;53.430;-2.224;2024-02-28T14:29:13;10;7;
46681;PMS5003;34101;53.430;-2.224;2024-02-28T14:31:41;9;9;
46681;PMS5003;34101;53.430;-2.224;2024-02-28T14:34:08;8;8;
46681;PMS5003;34101;53.430;-2.224;2024-02-28T14:36:36;11;10;
46681;PMS5003;34101;53.430;-2.224;2024-02-28T14:39:03;7;7;
46681;PMS5003;34101;53.430;-2.224;2024-02-28T14:41:30;9;9;
46681;PMS5003;34101;53.430;-2.224;2024-02-28T14:43:58;8;8;
46681;PMS5003;34101;53.430;-2.224;2024-02-28T14:46:25;9;9;
46681;PMS5003;34101;53.430;-2.224;2024-02-28T14:48:52;8;8;
46681;PMS5003;34101;53.430;-2.224;2024-02-28T14:51:20;9;7;
46681;PMS5003;34101;53.430;-2.224;2024-02-28T14:53:47;9;9;
46681;PMS5003;34101;53.430;-2.224;2024-02-28T14:56:15;9;9;
46681;PMS5003;34101;53.430;-2.224;2024-02-28T14:58:44;10;8;
46681;PMS5003;34101;53.430;-2.224;2024-02-28T15:01:12;11;11;
46681;PMS5003;34101;53.430;-2.224;2024-02-28T15:03:40;7;6;
46681;PMS5003;34101;53.430;-2.224;2024-02-28T15:06:08;8;8;
46681;PMS5003;34101;53.430;-2.224;2024-02-28T15:08:36;10;8;
46681;PMS5003;34101;53.430;-2.224;2024-02-28T15:11:03;10;8;
46681;PMS5003;34101;53.430;-2.224;2024-02-28T15:13:31;8;8;
46681;PMS5003;34101;53.430;-2.224;2024-02-28T15:15:58;10;8;
46681;PMS5003;34101;53.430;-2.224;2024-02-28T15:18:27;8;7;
46681;PMS5003;34101;53.430;-2.224;2024-02-28T15:20:55;8;8;
46681;PMS5003;34101;53.430;-2.224;2024-02-28T15:23:23;8;7;
46681;PMS5003;34101;53.430;-2.224;2024-02-28T15:25:50;9;8;
46681;PMS5003;34101;53.430;-2.224;2024-02-28T15:28:17;10;9;
46681;PMS5003;34101;53.430;-2.224;2024-02-28T15:30:45;8;7;
46681;PMS5003;34101;53.430;-2.224;2024-02-28T15:33:12;7;6;
46681;PMS5003;34101;53.430;-2.224;2024-02-28T15:35:40;5;5;
46681;PMS5003;34101;53.430;-2.224;2024-02-28T15:38:08;8;7;
46681;PMS5003;34101;53.430;-2.224;2024-02-28T15:40:35;10;8;
46681;PMS5003;34101;53.430;-2.224;2024-02-28T15:43:02;7;5;
46681;PMS5003;34101;53.430;-2.224;2024-02-28T15:45:30;8;8;
46681;PMS5003;34101;53.430;-2.224;2024-02-28T15:47:57;8;6;
46681;PMS5003;34101;53.430;-2.224;2024-02-28T15:50:24;9;7;
46681;PMS5003;34101;53.430;-2.224;2024-02-28T15:52:52;7;5;
46681;PMS5003;34101;53.430;-2.224;2024-02-28T15:55:19;7;7;
46681;PMS5003;34101;53.430;-2.224;2024-02-28T15:57:46;8;6;
46681;PMS5003;34101;53.430;-2.224;2024-02-28T16:00:14;8;5;
46681;PMS5003;34101;53.430;-2.224;2024-02-28T16:02:43;8;7;
46681;PMS5003;34101;53.430;-2.224;2024-02-28T16:05:10;10;6;
46681;PMS5003;34101;53.430;-2.224;2024-02-28T16:07:38;6;6;
46681;PMS5003;34101;53.430;-2.224;2024-02-28T16:10:07;6;6;
46681;PMS5003;34101;53.430;-2.224;2024-02-28T16:12:36;6;5;
46681;PMS5003;34101;53.430;-2.224;2024-02-28T16:15:04;5;5;
46681;PMS5003;34101;53.430;-2.224;2024-02-28T16:17:32;6;6;
46681;PMS5003;34101;53.430;-2.224;2024-02-28T16:19:59;6;5;
46681;PMS5003;34101;53.430;-2.224;2024-02-28T16:22:27;7;7;
46681;PMS5003;34101;53.430;-2.224;2024-02-28T16:24:54;5;5;
46681;PMS5003;34101;53.430;-2.224;2024-02-28T16:27:22;8;7;
46681;PMS5003;34101;53.430;-2.224;2024-02-28T16:29:50;6;6;